EGVN - Brize Norton
Distance from station: E 5mi, 14km
Updated: 12/12/2017 4:50pm
Mist, Overcast
Mist, Overcast
 Wind from SSW
Wind: SSW 6 mph , 9 km/h
Temperature: 41°F , 5°C
Wind Chill: 37°F , 3°C
Dew Point: 39°F , 4°C
Humidity: 93%
Barometer: 29.56 inHg , 1001 hPa
Summary: Mist
Clouds: Overcast
Visibility: 3 miles , 5 km
Cloud details: Mostly Cloudy 600 ft
Overcast 800 ft
2017/12/13 00:50 EGVN 130050Z 20005KT 5000 BR BKN006 OVC008 05/04 Q1001 TEMPO 3000 -RADZ BKN004